sensor_id;sensor_type;location;lat;lon;timestamp;pressure;altitude;pressure_sealevel;temperature;humidity
52291;BME280;39663;45.432;28.050;2023-03-20T00:00:20;101744.86;;;7.11;49.40
52291;BME280;39663;45.432;28.050;2023-03-20T00:00:53;101745.38;;;7.16;49.28
52291;BME280;39663;45.432;28.050;2023-03-20T00:01:28;101744.77;;;6.54;50.08
52291;BME280;39663;45.432;28.050;2023-03-20T00:02:00;101747.17;;;6.67;49.58
52291;BME280;39663;45.432;28.050;2023-03-20T00:02:32;101746.81;;;6.99;49.80
52291;BME280;39663;45.432;28.050;2023-03-20T00:03:03;101748.18;;;6.96;49.53
52291;BME280;39663;45.432;28.050;2023-03-20T00:03:35;101747.47;;;6.98;49.69
52291;BME280;39663;45.432;28.050;2023-03-20T00:04:09;101747.04;;;7.19;49.33
52291;BME280;39663;45.432;28.050;2023-03-20T00:04:41;101746.42;;;7.22;49.43
52291;BME280;39663;45.432;28.050;2023-03-20T00:05:18;101745.64;;;7.38;49.17
52291;BME280;39663;45.432;28.050;2023-03-20T00:05:50;101743.93;;;7.39;49.08
52291;BME280;39663;45.432;28.050;2023-03-20T00:06:23;101744.53;;;7.46;49.01
52291;BME280;39663;45.432;28.050;2023-03-20T00:06:55;101743.17;;;7.12;49.62
52291;BME280;39663;45.432;28.050;2023-03-20T00:07:27;101743.17;;;7.13;49.17
52291;BME280;39663;45.432;28.050;2023-03-20T00:07:58;101742.52;;;7.30;48.97
52291;BME280;39663;45.432;28.050;2023-03-20T00:08:30;101740.54;;;7.49;48.78
52291;BME280;39663;45.432;28.050;2023-03-20T00:09:02;101738.78;;;7.50;48.80
52291;BME280;39663;45.432;28.050;2023-03-20T00:09:33;101739.01;;;7.48;48.84
52291;BME280;39663;45.432;28.050;2023-03-20T00:10:06;101739.16;;;7.35;49.12
52291;BME280;39663;45.432;28.050;2023-03-20T00:10:40;101741.67;;;6.96;49.46
52291;BME280;39663;45.432;28.050;2023-03-20T00:11:27;101739.98;;;7.22;49.25
52291;BME280;39663;45.432;28.050;2023-03-20T00:11:59;101739.72;;;7.01;49.80
52291;BME280;39663;45.432;28.050;2023-03-20T00:12:31;101740.47;;;7.12;49.49
52291;BME280;39663;45.432;28.050;2023-03-20T00:13:03;101738.69;;;7.14;49.51
52291;BME280;39663;45.432;28.050;2023-03-20T00:13:35;101738.84;;;7.32;49.21
52291;BME280;39663;45.432;28.050;2023-03-20T00:14:09;101737.93;;;7.38;49.13
52291;BME280;39663;45.432;28.050;2023-03-20T00:14:41;101739.81;;;7.11;49.41
52291;BME280;39663;45.432;28.050;2023-03-20T00:15:23;101737.85;;;7.40;49.07
52291;BME280;39663;45.432;28.050;2023-03-20T00:15:55;101738.87;;;7.25;49.07
52291;BME280;39663;45.432;28.050;2023-03-20T00:16:30;101739.91;;;7.31;49.17
52291;BME280;39663;45.432;28.050;2023-03-20T00:17:09;101738.97;;;7.41;49.04
52291;BME280;39663;45.432;28.050;2023-03-20T00:17:41;101738.44;;;7.32;49.26
52291;BME280;39663;45.432;28.050;2023-03-20T00:18:15;101737.21;;;7.22;49.13
52291;BME280;39663;45.432;28.050;2023-03-20T00:18:47;101738.34;;;6.77;49.89
52291;BME280;39663;45.432;28.050;2023-03-20T00:19:20;101735.50;;;7.09;49.79
52291;BME280;39663;45.432;28.050;2023-03-20T00:19:51;101737.05;;;7.17;49.59
52291;BME280;39663;45.432;28.050;2023-03-20T00:20:23;101736.55;;;7.22;49.63
52291;BME280;39663;45.432;28.050;2023-03-20T00:20:55;101736.23;;;6.98;50.23
52291;BME280;39663;45.432;28.050;2023-03-20T00:21:26;101735.62;;;6.98;49.84
52291;BME280;39663;45.432;28.050;2023-03-20T00:21:59;101736.92;;;7.09;49.71
52291;BME280;39663;45.432;28.050;2023-03-20T00:22:30;101735.58;;;6.94;50.40
52291;BME280;39663;45.432;28.050;2023-03-20T00:23:02;101733.56;;;6.84;50.12
52291;BME280;39663;45.432;28.050;2023-03-20T00:23:34;101736.67;;;6.13;51.35
52291;BME280;39663;45.432;28.050;2023-03-20T00:24:06;101734.96;;;6.07;51.96
52291;BME280;39663;45.432;28.050;2023-03-20T00:24:38;101735.61;;;6.26;51.59
52291;BME280;39663;45.432;28.050;2023-03-20T00:25:13;101735.74;;;6.17;51.77
52291;BME280;39663;45.432;28.050;2023-03-20T00:25:45;101732.23;;;6.82;50.85
52291;BME280;39663;45.432;28.050;2023-03-20T00:26:18;101730.66;;;6.88;50.44
52291;BME280;39663;45.432;28.050;2023-03-20T00:26:50;101730.17;;;6.89;50.65
52291;BME280;39663;45.432;28.050;2023-03-20T00:27:23;101731.45;;;6.84;50.74
52291;BME280;39663;45.432;28.050;2023-03-20T00:27:54;101729.75;;;6.90;50.72
52291;BME280;39663;45.432;28.050;2023-03-20T00:28:33;101730.73;;;6.93;51.74
52291;BME280;39663;45.432;28.050;2023-03-20T00:29:06;101732.09;;;5.91;54.32
52291;BME280;39663;45.432;28.050;2023-03-20T00:29:44;101731.39;;;6.47;53.00
52291;BME280;39663;45.432;28.050;2023-03-20T00:30:21;101726.96;;;6.66;52.50
52291;BME280;39663;45.432;28.050;2023-03-20T00:30:54;101725.33;;;6.76;52.71
52291;BME280;39663;45.432;28.050;2023-03-20T00:31:27;101728.34;;;6.45;54.38
52291;BME280;39663;45.432;28.050;2023-03-20T00:31:59;101725.24;;;6.11;54.77
52291;BME280;39663;45.432;28.050;2023-03-20T00:32:30;101725.40;;;5.64;54.62
52291;BME280;39663;45.432;28.050;2023-03-20T00:33:02;101724.66;;;6.17;54.31
52291;BME280;39663;45.432;28.050;2023-03-20T00:33:34;101726.71;;;5.70;55.97
52291;BME280;39663;45.432;28.050;2023-03-20T00:34:11;101727.33;;;5.58;57.13
52291;BME280;39663;45.432;28.050;2023-03-20T00:34:42;101727.75;;;5.70;56.28
52291;BME280;39663;45.432;28.050;2023-03-20T00:35:24;101730.56;;;6.20;54.44
52291;BME280;39663;45.432;28.050;2023-03-20T00:35:56;101724.96;;;6.50;52.63
52291;BME280;39663;45.432;28.050;2023-03-20T00:36:28;101723.66;;;6.81;51.48
52291;BME280;39663;45.432;28.050;2023-03-20T00:36:59;101724.54;;;6.54;51.82
52291;BME280;39663;45.432;28.050;2023-03-20T00:37:31;101722.38;;;6.38;51.61
52291;BME280;39663;45.432;28.050;2023-03-20T00:38:02;101721.84;;;6.82;51.77
52291;BME280;39663;45.432;28.050;2023-03-20T00:38:34;101723.38;;;6.67;51.59
52291;BME280;39663;45.432;28.050;2023-03-20T00:39:05;101721.05;;;6.78;51.29
52291;BME280;39663;45.432;28.050;2023-03-20T00:39:37;101719.25;;;6.92;50.70
52291;BME280;39663;45.432;28.050;2023-03-20T00:40:10;101717.85;;;6.91;50.65
52291;BME280;39663;45.432;28.050;2023-03-20T00:40:42;101718.68;;;6.97;50.87
52291;BME280;39663;45.432;28.050;2023-03-20T00:41:21;101718.89;;;6.37;51.35
52291;BME280;39663;45.432;28.050;2023-03-20T00:41:55;101716.59;;;6.74;50.85
52291;BME280;39663;45.432;28.050;2023-03-20T00:42:28;101716.41;;;6.85;50.89
52291;BME280;39663;45.432;28.050;2023-03-20T00:43:01;101717.78;;;6.75;50.99
52291;BME280;39663;45.432;28.050;2023-03-20T00:43:33;101718.70;;;6.66;51.04
52291;BME280;39663;45.432;28.050;2023-03-20T00:44:16;101718.16;;;6.96;50.52
52291;BME280;39663;45.432;28.050;2023-03-20T00:44:51;101719.24;;;6.83;50.41
52291;BME280;39663;45.432;28.050;2023-03-20T00:45:22;101719.29;;;7.08;49.95
52291;BME280;39663;45.432;28.050;2023-03-20T00:45:54;101716.60;;;7.16;49.77
52291;BME280;39663;45.432;28.050;2023-03-20T00:46:26;101715.40;;;6.97;50.25
52291;BME280;39663;45.432;28.050;2023-03-20T00:46:59;101715.03;;;7.07;49.95
52291;BME280;39663;45.432;28.050;2023-03-20T00:47:34;101713.17;;;7.15;49.70
52291;BME280;39663;45.432;28.050;2023-03-20T00:48:09;101713.08;;;7.41;49.67
52291;BME280;39663;45.432;28.050;2023-03-20T00:48:43;101713.97;;;7.12;49.75
52291;BME280;39663;45.432;28.050;2023-03-20T00:49:16;101712.20;;;7.33;49.71
52291;BME280;39663;45.432;28.050;2023-03-20T00:49:50;101712.25;;;7.17;49.74
52291;BME280;39663;45.432;28.050;2023-03-20T00:50:24;101712.60;;;7.19;49.63
52291;BME280;39663;45.432;28.050;2023-03-20T00:50:56;101711.21;;;7.23;49.52
52291;BME280;39663;45.432;28.050;2023-03-20T00:51:28;101712.26;;;6.97;50.13
52291;BME280;39663;45.432;28.050;2023-03-20T00:52:00;101713.17;;;7.03;49.97
52291;BME280;39663;45.432;28.050;2023-03-20T00:52:32;101712.99;;;7.09;49.84
52291;BME280;39663;45.432;28.050;2023-03-20T00:53:04;101712.45;;;7.06;49.80
52291;BME280;39663;45.432;28.050;2023-03-20T00:53:36;101712.08;;;7.05;49.76
52291;BME280;39663;45.432;28.050;2023-03-20T00:54:12;101710.51;;;7.08;49.67
52291;BME280;39663;45.432;28.050;2023-03-20T00:54:44;101709.97;;;7.02;49.83
52291;BME280;39663;45.432;28.050;2023-03-20T00:55:15;101710.33;;;6.76;50.53
52291;BME280;39663;45.432;28.050;2023-03-20T00:55:47;101709.26;;;6.72;50.51
52291;BME280;39663;45.432;28.050;2023-03-20T00:56:30;101709.16;;;6.93;50.39
52291;BME280;39663;45.432;28.050;2023-03-20T00:57:07;101712.82;;;6.28;51.75
52291;BME280;39663;45.432;28.050;2023-03-20T00:57:42;101713.87;;;6.78;51.70
52291;BME280;39663;45.432;28.050;2023-03-20T00:58:15;101710.56;;;6.46;51.55
52291;BME280;39663;45.432;28.050;2023-03-20T00:58:47;101708.79;;;6.15;52.08
52291;BME280;39663;45.432;28.050;2023-03-20T00:59:21;101709.67;;;5.64;52.69
52291;BME280;39663;45.432;28.050;2023-03-20T00:59:57;101710.05;;;6.31;51.49
52291;BME280;39663;45.432;28.050;2023-03-20T01:00:35;101709.02;;;6.34;51.46
52291;BME280;39663;45.432;28.050;2023-03-20T01:01:07;101708.48;;;5.72;52.49
52291;BME280;39663;45.432;28.050;2023-03-20T01:01:39;101705.50;;;6.36;51.18
52291;BME280;39663;45.432;28.050;2023-03-20T01:02:11;101704.48;;;6.83;50.75
52291;BME280;39663;45.432;28.050;2023-03-20T01:02:42;101705.67;;;6.58;50.62
52291;BME280;39663;45.432;28.050;2023-03-20T01:03:15;101705.24;;;6.80;50.68
52291;BME280;39663;45.432;28.050;2023-03-20T01:03:47;101703.79;;;6.76;50.19
52291;BME280;39663;45.432;28.050;2023-03-20T01:04:19;101702.84;;;7.06;49.92
52291;BME280;39663;45.432;28.050;2023-03-20T01:04:51;101701.58;;;6.91;49.75
52291;BME280;39663;45.432;28.050;2023-03-20T01:05:23;101701.67;;;6.94;49.74
52291;BME280;39663;45.432;28.050;2023-03-20T01:05:55;101704.46;;;6.73;50.19
52291;BME280;39663;45.432;28.050;2023-03-20T01:06:27;101703.68;;;6.71;50.27
52291;BME280;39663;45.432;28.050;2023-03-20T01:06:58;101703.02;;;6.74;50.32
52291;BME280;39663;45.432;28.050;2023-03-20T01:07:30;101702.77;;;6.80;50.27
52291;BME280;39663;45.432;28.050;2023-03-20T01:08:01;101703.50;;;6.40;51.03
52291;BME280;39663;45.432;28.050;2023-03-20T01:08:33;101703.28;;;6.83;50.59
52291;BME280;39663;45.432;28.050;2023-03-20T01:09:04;101706.73;;;6.79;51.05
52291;BME280;39663;45.432;28.050;2023-03-20T01:09:36;101706.63;;;6.89;50.86
52291;BME280;39663;45.432;28.050;2023-03-20T01:10:09;101710.34;;;6.22;51.94
52291;BME280;39663;45.432;28.050;2023-03-20T01:10:42;101707.31;;;6.63;51.15
52291;BME280;39663;45.432;28.050;2023-03-20T01:11:17;101709.58;;;6.31;51.93
52291;BME280;39663;45.432;28.050;2023-03-20T01:11:52;101709.48;;;6.22;52.25
52291;BME280;39663;45.432;28.050;2023-03-20T01:12:24;101709.34;;;5.78;53.31
52291;BME280;39663;45.432;28.050;2023-03-20T01:12:58;101708.13;;;6.02;53.13
52291;BME280;39663;45.432;28.050;2023-03-20T01:13:31;101707.32;;;5.70;52.75
52291;BME280;39663;45.432;28.050;2023-03-20T01:14:03;101706.20;;;5.85;52.66
52291;BME280;39663;45.432;28.050;2023-03-20T01:14:35;101704.56;;;5.97;52.18
52291;BME280;39663;45.432;28.050;2023-03-20T01:15:16;101704.63;;;6.29;51.60
52291;BME280;39663;45.432;28.050;2023-03-20T01:15:49;101705.00;;;5.83;52.26
52291;BME280;39663;45.432;28.050;2023-03-20T01:16:23;101704.15;;;5.25;53.24
52291;BME280;39663;45.432;28.050;2023-03-20T01:16:55;101701.92;;;4.91;53.73
52291;BME280;39663;45.432;28.050;2023-03-20T01:17:27;101703.30;;;4.74;54.65
52291;BME280;39663;45.432;28.050;2023-03-20T01:17:59;101704.30;;;4.82;54.98
52291;BME280;39663;45.432;28.050;2023-03-20T01:18:30;101702.05;;;5.26;53.98
52291;BME280;39663;45.432;28.050;2023-03-20T01:19:02;101702.89;;;5.36;53.43
52291;BME280;39663;45.432;28.050;2023-03-20T01:19:34;101704.09;;;5.19;52.69
52291;BME280;39663;45.432;28.050;2023-03-20T01:20:09;101703.25;;;5.00;52.75
52291;BME280;39663;45.432;28.050;2023-03-20T01:20:44;101703.78;;;5.62;52.41
52291;BME280;39663;45.432;28.050;2023-03-20T01:21:16;101703.36;;;5.05;53.08
52291;BME280;39663;45.432;28.050;2023-03-20T01:21:48;101705.08;;;4.43;54.63
52291;BME280;39663;45.432;28.050;2023-03-20T01:22:19;101705.77;;;5.13;53.39
52291;BME280;39663;45.432;28.050;2023-03-20T01:22:51;101706.67;;;4.39;53.69
52291;BME280;39663;45.432;28.050;2023-03-20T01:23:23;101706.75;;;4.21;53.89
52291;BME280;39663;45.432;28.050;2023-03-20T01:23:55;101705.88;;;4.19;53.19
52291;BME280;39663;45.432;28.050;2023-03-20T01:24:27;101706.98;;;5.25;51.95
52291;BME280;39663;45.432;28.050;2023-03-20T01:24:58;101707.37;;;5.47;51.63
52291;BME280;39663;45.432;28.050;2023-03-20T01:25:30;101707.81;;;6.12;51.24
52291;BME280;39663;45.432;28.050;2023-03-20T01:26:02;101707.37;;;5.87;52.15
52291;BME280;39663;45.432;28.050;2023-03-20T01:26:35;101709.32;;;5.68;51.92
52291;BME280;39663;45.432;28.050;2023-03-20T01:27:11;101710.44;;;6.08;51.80
52291;BME280;39663;45.432;28.050;2023-03-20T01:27:48;101708.72;;;5.55;52.50
52291;BME280;39663;45.432;28.050;2023-03-20T01:28:22;101709.60;;;4.75;53.70
52291;BME280;39663;45.432;28.050;2023-03-20T01:28:54;101706.74;;;5.53;52.80
52291;BME280;39663;45.432;28.050;2023-03-20T01:29:26;101705.47;;;5.13;53.13
52291;BME280;39663;45.432;28.050;2023-03-20T01:29:57;101705.90;;;5.59;52.63
52291;BME280;39663;45.432;28.050;2023-03-20T01:30:30;101705.90;;;5.15;53.87
52291;BME280;39663;45.432;28.050;2023-03-20T01:31:02;101702.03;;;5.04;53.40
52291;BME280;39663;45.432;28.050;2023-03-20T01:31:34;101702.53;;;4.22;54.61
52291;BME280;39663;45.432;28.050;2023-03-20T01:32:09;101700.76;;;5.25;53.82
52291;BME280;39663;45.432;28.050;2023-03-20T01:32:42;101700.23;;;4.71;54.45
52291;BME280;39663;45.432;28.050;2023-03-20T01:33:15;101700.94;;;4.69;54.67
52291;BME280;39663;45.432;28.050;2023-03-20T01:33:47;101699.31;;;4.90;53.60
52291;BME280;39663;45.432;28.050;2023-03-20T01:34:19;101698.27;;;5.22;53.82
52291;BME280;39663;45.432;28.050;2023-03-20T01:34:51;101698.75;;;5.73;52.57
52291;BME280;39663;45.432;28.050;2023-03-20T01:35:24;101696.71;;;5.65;52.21
52291;BME280;39663;45.432;28.050;2023-03-20T01:35:56;101697.22;;;5.70;52.40
52291;BME280;39663;45.432;28.050;2023-03-20T01:36:28;101698.15;;;5.64;52.51
52291;BME280;39663;45.432;28.050;2023-03-20T01:36:59;101699.01;;;5.78;52.38
52291;BME280;39663;45.432;28.050;2023-03-20T01:37:31;101698.11;;;5.42;52.56
52291;BME280;39663;45.432;28.050;2023-03-20T01:38:04;101697.41;;;5.41;52.56
52291;BME280;39663;45.432;28.050;2023-03-20T01:38:40;101698.59;;;5.85;52.90
52291;BME280;39663;45.432;28.050;2023-03-20T01:39:12;101699.43;;;5.76;52.89
52291;BME280;39663;45.432;28.050;2023-03-20T01:39:44;101698.89;;;6.19;52.24
52291;BME280;39663;45.432;28.050;2023-03-20T01:40:24;101700.63;;;5.46;54.11
52291;BME280;39663;45.432;28.050;2023-03-20T01:41:02;101702.98;;;5.48;55.34
52291;BME280;39663;45.432;28.050;2023-03-20T01:41:35;101702.85;;;4.87;57.11
52291;BME280;39663;45.432;28.050;2023-03-20T01:42:07;101702.47;;;5.51;55.03
52291;BME280;39663;45.432;28.050;2023-03-20T01:42:38;101703.40;;;5.42;55.88
52291;BME280;39663;45.432;28.050;2023-03-20T01:43:14;101703.76;;;5.50;55.19
52291;BME280;39663;45.432;28.050;2023-03-20T01:43:46;101707.58;;;5.00;56.78
52291;BME280;39663;45.432;28.050;2023-03-20T01:44:21;101708.24;;;4.95;57.56
52291;BME280;39663;45.432;28.050;2023-03-20T01:44:53;101711.91;;;4.81;58.32
52291;BME280;39663;45.432;28.050;2023-03-20T01:45:30;101713.62;;;4.80;57.15
52291;BME280;39663;45.432;28.050;2023-03-20T01:46:15;101712.89;;;4.77;56.47
52291;BME280;39663;45.432;28.050;2023-03-20T01:46:48;101711.83;;;5.44;54.69
52291;BME280;39663;45.432;28.050;2023-03-20T01:47:22;101710.63;;;5.30;55.53
52291;BME280;39663;45.432;28.050;2023-03-20T01:47:53;101710.05;;;5.24;55.30
52291;BME280;39663;45.432;28.050;2023-03-20T01:48:31;101707.20;;;4.95;54.50
52291;BME280;39663;45.432;28.050;2023-03-20T01:50:10;101704.82;;;5.66;53.11
52291;BME280;39663;45.432;28.050;2023-03-20T01:50:48;101702.64;;;5.56;53.13
52291;BME280;39663;45.432;28.050;2023-03-20T01:51:21;101700.99;;;5.34;53.50
52291;BME280;39663;45.432;28.050;2023-03-20T01:51:53;101700.16;;;5.81;52.33
52291;BME280;39663;45.432;28.050;2023-03-20T01:52:26;101700.41;;;5.78;52.54
52291;BME280;39663;45.432;28.050;2023-03-20T01:53:03;101701.15;;;5.24;53.41
52291;BME280;39663;45.432;28.050;2023-03-20T01:53:37;101700.31;;;5.28;53.48
52291;BME280;39663;45.432;28.050;2023-03-20T01:54:12;101697.76;;;5.83;52.44
52291;BME280;39663;45.432;28.050;2023-03-20T01:54:45;101700.43;;;5.85;52.32
52291;BME280;39663;45.432;28.050;2023-03-20T01:55:17;101699.79;;;6.17;51.44
52291;BME280;39663;45.432;28.050;2023-03-20T01:55:51;101698.96;;;6.26;50.98
52291;BME280;39663;45.432;28.050;2023-03-20T01:56:25;101700.80;;;5.87;51.56
52291;BME280;39663;45.432;28.050;2023-03-20T01:57:01;101699.32;;;5.86;51.87
52291;BME280;39663;45.432;28.050;2023-03-20T01:57:34;101699.43;;;5.60;52.38
52291;BME280;39663;45.432;28.050;2023-03-20T01:58:10;101696.34;;;6.14;51.63
52291;BME280;39663;45.432;28.050;2023-03-20T01:58:48;101697.12;;;6.28;50.85
52291;BME280;39663;45.432;28.050;2023-03-20T01:59:25;101697.80;;;6.34;50.64
52291;BME280;39663;45.432;28.050;2023-03-20T02:00:02;101697.52;;;5.71;51.73
52291;BME280;39663;45.432;28.050;2023-03-20T02:00:34;101697.11;;;5.90;51.59
52291;BME280;39663;45.432;28.050;2023-03-20T02:01:09;101697.64;;;6.13;50.96
52291;BME280;39663;45.432;28.050;2023-03-20T02:01:42;101697.63;;;6.00;51.39
52291;BME280;39663;45.432;28.050;2023-03-20T02:02:18;101698.11;;;5.04;53.24
52291;BME280;39663;45.432;28.050;2023-03-20T02:02:52;101698.01;;;4.61;54.03
52291;BME280;39663;45.432;28.050;2023-03-20T02:03:24;101696.11;;;4.51;53.97
52291;BME280;39663;45.432;28.050;2023-03-20T02:03:55;101695.81;;;5.28;53.47
52291;BME280;39663;45.432;28.050;2023-03-20T02:04:30;101696.93;;;4.84;54.59
52291;BME280;39663;45.432;28.050;2023-03-20T02:05:07;101697.45;;;4.06;55.49
52291;BME280;39663;45.432;28.050;2023-03-20T02:05:40;101696.50;;;4.05;56.18
52291;BME280;39663;45.432;28.050;2023-03-20T02:06:12;101698.17;;;4.50;55.33
52291;BME280;39663;45.432;28.050;2023-03-20T02:06:45;101699.17;;;4.12;55.54
52291;BME280;39663;45.432;28.050;2023-03-20T02:07:18;101697.16;;;5.03;53.94
52291;BME280;39663;45.432;28.050;2023-03-20T02:08:01;101696.20;;;5.45;52.82
52291;BME280;39663;45.432;28.050;2023-03-20T02:08:39;101694.49;;;5.98;51.84
52291;BME280;39663;45.432;28.050;2023-03-20T02:09:12;101696.52;;;5.89;51.75
52291;BME280;39663;45.432;28.050;2023-03-20T02:09:45;101696.25;;;5.69;52.51
52291;BME280;39663;45.432;28.050;2023-03-20T02:10:17;101694.58;;;5.61;52.95
52291;BME280;39663;45.432;28.050;2023-03-20T02:10:49;101695.38;;;5.64;52.79
52291;BME280;39663;45.432;28.050;2023-03-20T02:11:23;101697.97;;;5.79;52.91
52291;BME280;39663;45.432;28.050;2023-03-20T02:11:56;101698.85;;;5.75;52.80
52291;BME280;39663;45.432;28.050;2023-03-20T02:12:28;101699.68;;;5.83;52.22
52291;BME280;39663;45.432;28.050;2023-03-20T02:13:01;101701.14;;;6.13;51.81
52291;BME280;39663;45.432;28.050;2023-03-20T02:13:34;101701.03;;;5.35;52.83
52291;BME280;39663;45.432;28.050;2023-03-20T02:14:06;101701.79;;;5.35;53.37
52291;BME280;39663;45.432;28.050;2023-03-20T02:14:38;101702.13;;;5.36;52.79
52291;BME280;39663;45.432;28.050;2023-03-20T02:15:11;101700.71;;;5.79;52.36
52291;BME280;39663;45.432;28.050;2023-03-20T02:16:17;101699.51;;;5.79;52.08
52291;BME280;39663;45.432;28.050;2023-03-20T02:16:49;101699.86;;;6.13;51.55
52291;BME280;39663;45.432;28.050;2023-03-20T02:17:20;101700.31;;;6.05;51.20
52291;BME280;39663;45.432;28.050;2023-03-20T02:17:52;101699.22;;;5.92;50.72
52291;BME280;39663;45.432;28.050;2023-03-20T02:18:23;101699.60;;;5.87;51.22
52291;BME280;39663;45.432;28.050;2023-03-20T02:18:56;101698.37;;;5.93;50.79
52291;BME280;39663;45.432;28.050;2023-03-20T02:19:30;101697.66;;;5.63;51.29
52291;BME280;39663;45.432;28.050;2023-03-20T02:20:15;101697.41;;;5.86;50.59
52291;BME280;39663;45.432;28.050;2023-03-20T02:21:10;101696.86;;;6.25;50.15
52291;BME280;39663;45.432;28.050;2023-03-20T02:22:34;101694.12;;;6.18;49.79
52291;BME280;39663;45.432;28.050;2023-03-20T02:23:44;101696.30;;;5.20;52.31
52291;BME280;39663;45.432;28.050;2023-03-20T02:24:46;101696.85;;;4.46;53.77
52291;BME280;39663;45.432;28.050;2023-03-20T02:26:07;101698.70;;;4.28;53.96
52291;BME280;39663;45.432;28.050;2023-03-20T02:26:53;101698.51;;;5.58;51.38
52291;BME280;39663;45.432;28.050;2023-03-20T02:27:32;101699.01;;;5.57;51.41
52291;BME280;39663;45.432;28.050;2023-03-20T02:28:27;101698.07;;;5.42;51.74
52291;BME280;39663;45.432;28.050;2023-03-20T02:30:00;101698.26;;;5.19;52.35
52291;BME280;39663;45.432;28.050;2023-03-20T02:30:47;101694.76;;;5.65;51.56
52291;BME280;39663;45.432;28.050;2023-03-20T02:31:42;101696.09;;;5.12;52.94
52291;BME280;39663;45.432;28.050;2023-03-20T02:32:42;101694.81;;;4.41;54.18
52291;BME280;39663;45.432;28.050;2023-03-20T02:34:44;101698.22;;;3.87;56.52
52291;BME280;39663;45.432;28.050;2023-03-20T02:36:18;101696.48;;;4.61;54.68
52291;BME280;39663;45.432;28.050;2023-03-20T02:37:17;101691.40;;;5.04;53.48
52291;BME280;39663;45.432;28.050;2023-03-20T02:38:01;101692.71;;;4.65;54.60
52291;BME280;39663;45.432;28.050;2023-03-20T02:38:46;101694.58;;;3.77;56.58
52291;BME280;39663;45.432;28.050;2023-03-20T02:39:30;101691.28;;;5.03;53.92
52291;BME280;39663;45.432;28.050;2023-03-20T02:40:12;101689.82;;;5.43;53.00
52291;BME280;39663;45.432;28.050;2023-03-20T02:40:52;101691.05;;;5.67;52.37
52291;BME280;39663;45.432;28.050;2023-03-20T02:41:30;101690.68;;;5.82;52.18
52291;BME280;39663;45.432;28.050;2023-03-20T02:42:10;101690.22;;;5.68;51.98
52291;BME280;39663;45.432;28.050;2023-03-20T02:42:54;101691.67;;;5.99;51.63
52291;BME280;39663;45.432;28.050;2023-03-20T02:43:36;101691.67;;;6.01;51.72
52291;BME280;39663;45.432;28.050;2023-03-20T02:44:14;101693.59;;;5.86;52.07
52291;BME280;39663;45.432;28.050;2023-03-20T02:44:56;101692.70;;;4.63;53.48
52291;BME280;39663;45.432;28.050;2023-03-20T02:45:37;101695.99;;;4.10;54.89
52291;BME280;39663;45.432;28.050;2023-03-20T02:46:20;101696.84;;;4.25;55.29
52291;BME280;39663;45.432;28.050;2023-03-20T02:47:01;101697.17;;;4.02;55.56
52291;BME280;39663;45.432;28.050;2023-03-20T02:47:39;101699.09;;;4.72;54.81
52291;BME280;39663;45.432;28.050;2023-03-20T02:48:17;101700.78;;;4.14;55.63
52291;BME280;39663;45.432;28.050;2023-03-20T02:48:59;101702.23;;;3.62;56.74
52291;BME280;39663;45.432;28.050;2023-03-20T02:49:47;101704.10;;;3.50;57.15
52291;BME280;39663;45.432;28.050;2023-03-20T02:50:27;101703.13;;;4.15;56.27
52291;BME280;39663;45.432;28.050;2023-03-20T02:51:08;101701.56;;;3.94;56.48
52291;BME280;39663;45.432;28.050;2023-03-20T02:51:50;101703.18;;;4.27;56.41
52291;BME280;39663;45.432;28.050;2023-03-20T02:52:32;101700.34;;;4.03;56.62
52291;BME280;39663;45.432;28.050;2023-03-20T02:53:14;101700.68;;;3.95;56.97
52291;BME280;39663;45.432;28.050;2023-03-20T02:53:52;101701.43;;;4.49;55.85
52291;BME280;39663;45.432;28.050;2023-03-20T02:54:29;101701.42;;;4.16;55.75
52291;BME280;39663;45.432;28.050;2023-03-20T02:55:13;101704.60;;;3.48;57.12
52291;BME280;39663;45.432;28.050;2023-03-20T02:55:50;101705.83;;;4.56;55.01
52291;BME280;39663;45.432;28.050;2023-03-20T02:56:30;101707.24;;;4.60;54.95
52291;BME280;39663;45.432;28.050;2023-03-20T02:57:08;101708.16;;;4.88;54.49
52291;BME280;39663;45.432;28.050;2023-03-20T02:57:51;101708.71;;;4.99;53.74
52291;BME280;39663;45.432;28.050;2023-03-20T02:58:29;101709.55;;;4.91;54.00
52291;BME280;39663;45.432;28.050;2023-03-20T02:59:11;101709.02;;;5.15;53.94
52291;BME280;39663;45.432;28.050;2023-03-20T02:59:53;101708.08;;;5.45;53.53
52291;BME280;39663;45.432;28.050;2023-03-20T03:00:28;101707.11;;;5.48;53.01
52291;BME280;39663;45.432;28.050;2023-03-20T03:01:09;101707.16;;;5.09;53.52
52291;BME280;39663;45.432;28.050;2023-03-20T03:01:44;101708.18;;;5.31;53.58
52291;BME280;39663;45.432;28.050;2023-03-20T03:02:21;101705.91;;;5.44;53.20
52291;BME280;39663;45.432;28.050;2023-03-20T03:03:03;101704.57;;;5.42;52.63
52291;BME280;39663;45.432;28.050;2023-03-20T03:03:38;101700.99;;;5.48;52.85
52291;BME280;39663;45.432;28.050;2023-03-20T03:04:15;101700.51;;;5.54;52.71
52291;BME280;39663;45.432;28.050;2023-03-20T03:04:50;101697.95;;;5.66;52.41
52291;BME280;39663;45.432;28.050;2023-03-20T03:05:26;101694.88;;;5.07;54.40
52291;BME280;39663;45.432;28.050;2023-03-20T03:06:06;101695.71;;;4.99;55.06
52291;BME280;39663;45.432;28.050;2023-03-20T03:06:42;101695.17;;;5.00;55.11
52291;BME280;39663;45.432;28.050;2023-03-20T03:07:18;101692.78;;;5.08;53.89
52291;BME280;39663;45.432;28.050;2023-03-20T03:07:54;101693.00;;;5.40;53.91
52291;BME280;39663;45.432;28.050;2023-03-20T03:08:34;101694.79;;;5.01;54.09
52291;BME280;39663;45.432;28.050;2023-03-20T03:09:12;101693.87;;;5.33;52.85
52291;BME280;39663;45.432;28.050;2023-03-20T03:09:48;101697.64;;;4.23;54.43
52291;BME280;39663;45.432;28.050;2023-03-20T03:10:24;101696.55;;;4.35;54.73